CheckWX is a tool to help pilots better visualize weather data.  It is not intended as a substitute for an official pre-flight weather briefing.

12:19:57 UTC

KTQE METAR
Tekamah Municipal Airport
Tekamah, Nebraska, USA
Current

26 mins ago

KTQE 181154Z AUTO 00000KT 10SM CLR M15/M16 A3036 RMK AO2 SLP297 T11501161 11089 21150 53022
Observed
Feb-18 @ 11:54 UTC
Visibility
10 SM
Flight Rules
VFR
Cloud Levels
  • Clear skies
Temperature
-15°C / 5°F
Dewpoint
-16°C / 3°F
Humidity
92%
Altimeter
30.36" Hg
Pressure
1029.7 hPa
Previous

1 hour ago

KTQE 181054Z AUTO 33011KT 10SM CLR M13/M14 A3033 RMK AO2 SLP286 T11281144
Observed
Feb-18 @ 10:54 UTC
Wind
  • 330° at 11 KTS
Visibility
10 SM
Flight Rules
VFR
Cloud Levels
  • Clear skies
Temperature
-13°C / 9°F
Dewpoint
-14°C / 7°F
Humidity
92%
Altimeter
30.33" Hg
Pressure
1028.6 hPa
Previous

2 hours ago

KTQE 180954Z AUTO 33012KT 10SM CLR M12/M14 A3031 RMK AO2 SLP279 T11221144
Observed
Feb-18 @ 09:54 UTC
Wind
  • 330° at 12 KTS
Visibility
10 SM
Flight Rules
VFR
Cloud Levels
  • Clear skies
Temperature
-12°C / 10°F
Dewpoint
-14°C / 7°F
Humidity
85%
Altimeter
30.31" Hg
Pressure
1027.9 hPa